sensor_id;sensor_type;location;lat;lon;timestamp;P1;durP1;ratioP1;P2;durP2;ratioP2
64738;SDS011;51175;51.186;0.276;2023-04-25T00:00:30;8.27;;;3.88;;
64738;SDS011;51175;51.186;0.276;2023-04-25T00:01:00;8.15;;;4.38;;
64738;SDS011;51175;51.186;0.276;2023-04-25T00:01:32;11.18;;;5.45;;
64738;SDS011;51175;51.186;0.276;2023-04-25T00:02:05;10.93;;;5.82;;
64738;SDS011;51175;51.186;0.276;2023-04-25T00:02:36;13.93;;;6.18;;
64738;SDS011;51175;51.186;0.276;2023-04-25T00:03:07;12.15;;;5.22;;
64738;SDS011;51175;51.186;0.276;2023-04-25T00:03:38;12.02;;;5.03;;
64738;SDS011;51175;51.186;0.276;2023-04-25T00:04:09;10.52;;;5.32;;
64738;SDS011;51175;51.186;0.276;2023-04-25T00:04:41;10.82;;;5.10;;
64738;SDS011;51175;51.186;0.276;2023-04-25T00:05:12;8.20;;;5.20;;
64738;SDS011;51175;51.186;0.276;2023-04-25T00:05:42;10.35;;;5.05;;
64738;SDS011;51175;51.186;0.276;2023-04-25T00:06:13;11.43;;;5.13;;
64738;SDS011;51175;51.186;0.276;2023-04-25T00:06:44;9.38;;;4.43;;
64738;SDS011;51175;51.186;0.276;2023-04-25T00:07:14;10.77;;;4.65;;
64738;SDS011;51175;51.186;0.276;2023-04-25T00:07:45;8.52;;;4.65;;
64738;SDS011;51175;51.186;0.276;2023-04-25T00:08:15;9.93;;;4.90;;
64738;SDS011;51175;51.186;0.276;2023-04-25T00:08:46;9.10;;;5.35;;
64738;SDS011;51175;51.186;0.276;2023-04-25T00:09:16;11.60;;;5.80;;
64738;SDS011;51175;51.186;0.276;2023-04-25T00:09:47;11.43;;;6.10;;
64738;SDS011;51175;51.186;0.276;2023-04-25T00:10:18;14.05;;;6.05;;
64738;SDS011;51175;51.186;0.276;2023-04-25T00:10:49;9.23;;;4.93;;
64738;SDS011;51175;51.186;0.276;2023-04-25T00:11:19;9.65;;;4.68;;
64738;SDS011;51175;51.186;0.276;2023-04-25T00:11:50;10.40;;;5.40;;
64738;SDS011;51175;51.186;0.276;2023-04-25T00:12:20;11.13;;;6.30;;
64738;SDS011;51175;51.186;0.276;2023-04-25T00:12:52;12.90;;;5.65;;
64738;SDS011;51175;51.186;0.276;2023-04-25T00:13:23;10.52;;;5.50;;
64738;SDS011;51175;51.186;0.276;2023-04-25T00:13:55;11.23;;;5.40;;
64738;SDS011;51175;51.186;0.276;2023-04-25T00:14:25;11.63;;;5.43;;
64738;SDS011;51175;51.186;0.276;2023-04-25T00:14:57;13.18;;;5.82;;
64738;SDS011;51175;51.186;0.276;2023-04-25T00:15:28;10.13;;;5.13;;
64738;SDS011;51175;51.186;0.276;2023-04-25T00:16:00;9.00;;;5.38;;
64738;SDS011;51175;51.186;0.276;2023-04-25T00:16:32;12.23;;;5.80;;
64738;SDS011;51175;51.186;0.276;2023-04-25T00:17:04;10.15;;;6.82;;
64738;SDS011;51175;51.186;0.276;2023-04-25T00:17:35;12.80;;;5.80;;
64738;SDS011;51175;51.186;0.276;2023-04-25T00:18:08;12.38;;;5.75;;
64738;SDS011;51175;51.186;0.276;2023-04-25T00:18:38;9.68;;;5.65;;
64738;SDS011;51175;51.186;0.276;2023-04-25T00:19:09;12.85;;;6.03;;
64738;SDS011;51175;51.186;0.276;2023-04-25T00:19:40;15.48;;;6.70;;
64738;SDS011;51175;51.186;0.276;2023-04-25T00:20:10;8.45;;;5.68;;
64738;SDS011;51175;51.186;0.276;2023-04-25T00:20:41;10.73;;;5.40;;
64738;SDS011;51175;51.186;0.276;2023-04-25T00:21:17;11.68;;;6.18;;
64738;SDS011;51175;51.186;0.276;2023-04-25T00:21:49;10.98;;;6.78;;
64738;SDS011;51175;51.186;0.276;2023-04-25T00:22:20;12.15;;;6.18;;
64738;SDS011;51175;51.186;0.276;2023-04-25T00:22:50;11.95;;;5.95;;
64738;SDS011;51175;51.186;0.276;2023-04-25T00:23:23;14.52;;;6.85;;
64738;SDS011;51175;51.186;0.276;2023-04-25T00:23:54;11.07;;;5.63;;
64738;SDS011;51175;51.186;0.276;2023-04-25T00:24:25;10.82;;;5.85;;
64738;SDS011;51175;51.186;0.276;2023-04-25T00:24:55;13.75;;;5.55;;
64738;SDS011;51175;51.186;0.276;2023-04-25T00:25:27;14.38;;;6.32;;
64738;SDS011;51175;51.186;0.276;2023-04-25T00:25:57;9.93;;;5.72;;
64738;SDS011;51175;51.186;0.276;2023-04-25T00:26:27;11.60;;;5.95;;
64738;SDS011;51175;51.186;0.276;2023-04-25T00:26:58;11.07;;;5.43;;
64738;SDS011;51175;51.186;0.276;2023-04-25T00:27:28;10.85;;;5.68;;
64738;SDS011;51175;51.186;0.276;2023-04-25T00:27:59;10.57;;;5.53;;
64738;SDS011;51175;51.186;0.276;2023-04-25T00:28:29;11.43;;;5.90;;
64738;SDS011;51175;51.186;0.276;2023-04-25T00:28:59;9.45;;;5.68;;
64738;SDS011;51175;51.186;0.276;2023-04-25T00:29:30;13.50;;;6.32;;
64738;SDS011;51175;51.186;0.276;2023-04-25T00:30:00;11.15;;;5.90;;
64738;SDS011;51175;51.186;0.276;2023-04-25T00:30:31;11.70;;;5.55;;
64738;SDS011;51175;51.186;0.276;2023-04-25T00:31:01;12.10;;;5.65;;
64738;SDS011;51175;51.186;0.276;2023-04-25T00:31:32;13.15;;;6.28;;
64738;SDS011;51175;51.186;0.276;2023-04-25T00:32:02;10.63;;;6.43;;
64738;SDS011;51175;51.186;0.276;2023-04-25T00:32:33;9.95;;;5.78;;
64738;SDS011;51175;51.186;0.276;2023-04-25T00:33:03;12.43;;;6.65;;
64738;SDS011;51175;51.186;0.276;2023-04-25T00:33:34;11.00;;;6.00;;
64738;SDS011;51175;51.186;0.276;2023-04-25T00:34:05;9.80;;;6.32;;
64738;SDS011;51175;51.186;0.276;2023-04-25T00:34:37;13.82;;;6.47;;
64738;SDS011;51175;51.186;0.276;2023-04-25T00:35:07;10.88;;;5.65;;
64738;SDS011;51175;51.186;0.276;2023-04-25T00:35:39;11.25;;;6.88;;
64738;SDS011;51175;51.186;0.276;2023-04-25T00:36:09;12.48;;;5.50;;
64738;SDS011;51175;51.186;0.276;2023-04-25T00:36:40;12.82;;;6.13;;
64738;SDS011;51175;51.186;0.276;2023-04-25T00:37:10;15.10;;;6.47;;
64738;SDS011;51175;51.186;0.276;2023-04-25T00:37:41;11.07;;;6.00;;
64738;SDS011;51175;51.186;0.276;2023-04-25T00:38:12;10.35;;;5.95;;
64738;SDS011;51175;51.186;0.276;2023-04-25T00:38:42;12.80;;;6.32;;
64738;SDS011;51175;51.186;0.276;2023-04-25T00:39:12;11.73;;;6.35;;
64738;SDS011;51175;51.186;0.276;2023-04-25T00:39:43;11.15;;;5.65;;
64738;SDS011;51175;51.186;0.276;2023-04-25T00:40:13;11.40;;;5.75;;
64738;SDS011;51175;51.186;0.276;2023-04-25T00:40:44;12.95;;;6.65;;
64738;SDS011;51175;51.186;0.276;2023-04-25T00:41:14;10.60;;;5.47;;
64738;SDS011;51175;51.186;0.276;2023-04-25T00:41:45;11.40;;;5.68;;
64738;SDS011;51175;51.186;0.276;2023-04-25T00:42:15;12.02;;;6.15;;
64738;SDS011;51175;51.186;0.276;2023-04-25T00:42:46;11.38;;;5.45;;
64738;SDS011;51175;51.186;0.276;2023-04-25T00:43:17;10.70;;;6.25;;
64738;SDS011;51175;51.186;0.276;2023-04-25T00:43:48;11.68;;;5.13;;
64738;SDS011;51175;51.186;0.276;2023-04-25T00:44:19;11.90;;;5.88;;
64738;SDS011;51175;51.186;0.276;2023-04-25T00:44:50;9.40;;;5.10;;
64738;SDS011;51175;51.186;0.276;2023-04-25T00:45:22;9.88;;;5.20;;
64738;SDS011;51175;51.186;0.276;2023-04-25T00:45:58;11.27;;;5.57;;
64738;SDS011;51175;51.186;0.276;2023-04-25T00:46:30;9.07;;;5.05;;
64738;SDS011;51175;51.186;0.276;2023-04-25T00:47:01;9.25;;;5.20;;
64738;SDS011;51175;51.186;0.276;2023-04-25T00:47:32;10.43;;;5.22;;
64738;SDS011;51175;51.186;0.276;2023-04-25T00:48:03;9.43;;;5.38;;
64738;SDS011;51175;51.186;0.276;2023-04-25T00:48:34;9.55;;;5.22;;
64738;SDS011;51175;51.186;0.276;2023-04-25T00:49:04;13.52;;;5.97;;
64738;SDS011;51175;51.186;0.276;2023-04-25T00:49:35;8.15;;;4.47;;
64738;SDS011;51175;51.186;0.276;2023-04-25T00:50:06;13.68;;;5.93;;
64738;SDS011;51175;51.186;0.276;2023-04-25T00:50:37;10.90;;;5.68;;
64738;SDS011;51175;51.186;0.276;2023-04-25T00:51:08;9.35;;;5.53;;
64738;SDS011;51175;51.186;0.276;2023-04-25T00:51:43;9.35;;;4.53;;
64738;SDS011;51175;51.186;0.276;2023-04-25T00:52:14;12.20;;;6.25;;
64738;SDS011;51175;51.186;0.276;2023-04-25T00:52:45;11.95;;;5.93;;
64738;SDS011;51175;51.186;0.276;2023-04-25T00:53:15;12.32;;;6.30;;
64738;SDS011;51175;51.186;0.276;2023-04-25T00:53:46;12.73;;;6.65;;
64738;SDS011;51175;51.186;0.276;2023-04-25T00:54:18;12.48;;;7.03;;
64738;SDS011;51175;51.186;0.276;2023-04-25T00:54:48;14.40;;;7.20;;
64738;SDS011;51175;51.186;0.276;2023-04-25T00:55:19;11.68;;;6.40;;
64738;SDS011;51175;51.186;0.276;2023-04-25T00:55:50;11.93;;;6.20;;
64738;SDS011;51175;51.186;0.276;2023-04-25T00:56:21;12.90;;;5.72;;
64738;SDS011;51175;51.186;0.276;2023-04-25T00:56:51;11.02;;;6.32;;
64738;SDS011;51175;51.186;0.276;2023-04-25T00:57:22;11.65;;;5.40;;
64738;SDS011;51175;51.186;0.276;2023-04-25T00:57:52;11.85;;;5.95;;
64738;SDS011;51175;51.186;0.276;2023-04-25T00:58:23;13.18;;;7.43;;
64738;SDS011;51175;51.186;0.276;2023-04-25T00:58:54;12.05;;;6.30;;
64738;SDS011;51175;51.186;0.276;2023-04-25T00:59:27;11.38;;;5.90;;
64738;SDS011;51175;51.186;0.276;2023-04-25T00:59:58;13.80;;;6.90;;
64738;SDS011;51175;51.186;0.276;2023-04-25T01:00:29;13.93;;;5.43;;
64738;SDS011;51175;51.186;0.276;2023-04-25T01:01:00;13.68;;;6.53;;
64738;SDS011;51175;51.186;0.276;2023-04-25T01:01:31;10.43;;;5.43;;
64738;SDS011;51175;51.186;0.276;2023-04-25T01:02:02;11.75;;;6.10;;
64738;SDS011;51175;51.186;0.276;2023-04-25T01:02:33;13.10;;;6.25;;
64738;SDS011;51175;51.186;0.276;2023-04-25T01:03:05;13.77;;;5.95;;
64738;SDS011;51175;51.186;0.276;2023-04-25T01:03:37;12.88;;;6.15;;
64738;SDS011;51175;51.186;0.276;2023-04-25T01:04:12;12.65;;;6.05;;
64738;SDS011;51175;51.186;0.276;2023-04-25T01:04:43;11.27;;;5.05;;
64738;SDS011;51175;51.186;0.276;2023-04-25T01:05:14;10.88;;;5.75;;
64738;SDS011;51175;51.186;0.276;2023-04-25T01:05:45;10.13;;;5.68;;
64738;SDS011;51175;51.186;0.276;2023-04-25T01:06:16;9.10;;;4.97;;
64738;SDS011;51175;51.186;0.276;2023-04-25T01:06:47;8.85;;;5.47;;
64738;SDS011;51175;51.186;0.276;2023-04-25T01:07:18;11.15;;;6.13;;
64738;SDS011;51175;51.186;0.276;2023-04-25T01:07:48;11.13;;;5.40;;
64738;SDS011;51175;51.186;0.276;2023-04-25T01:08:19;12.60;;;5.60;;
64738;SDS011;51175;51.186;0.276;2023-04-25T01:08:53;12.43;;;6.38;;
64738;SDS011;51175;51.186;0.276;2023-04-25T01:09:24;13.43;;;6.03;;
64738;SDS011;51175;51.186;0.276;2023-04-25T01:09:54;9.38;;;5.43;;
64738;SDS011;51175;51.186;0.276;2023-04-25T01:10:24;9.38;;;4.90;;
64738;SDS011;51175;51.186;0.276;2023-04-25T01:10:55;11.68;;;5.43;;
64738;SDS011;51175;51.186;0.276;2023-04-25T01:11:25;11.10;;;5.72;;
64738;SDS011;51175;51.186;0.276;2023-04-25T01:11:56;10.23;;;5.80;;
64738;SDS011;51175;51.186;0.276;2023-04-25T01:12:27;15.35;;;5.97;;
64738;SDS011;51175;51.186;0.276;2023-04-25T01:12:58;9.05;;;5.10;;
64738;SDS011;51175;51.186;0.276;2023-04-25T01:13:28;11.98;;;5.07;;
64738;SDS011;51175;51.186;0.276;2023-04-25T01:13:59;12.73;;;6.45;;
64738;SDS011;51175;51.186;0.276;2023-04-25T01:14:30;10.00;;;4.75;;
64738;SDS011;51175;51.186;0.276;2023-04-25T01:15:01;8.02;;;4.53;;
64738;SDS011;51175;51.186;0.276;2023-04-25T01:15:31;9.68;;;4.28;;
64738;SDS011;51175;51.186;0.276;2023-04-25T01:16:02;11.50;;;6.00;;
64738;SDS011;51175;51.186;0.276;2023-04-25T01:16:33;10.48;;;3.85;;
64738;SDS011;51175;51.186;0.276;2023-04-25T01:17:03;9.88;;;4.80;;
64738;SDS011;51175;51.186;0.276;2023-04-25T01:17:34;9.60;;;5.72;;
64738;SDS011;51175;51.186;0.276;2023-04-25T01:18:05;11.73;;;5.22;;
64738;SDS011;51175;51.186;0.276;2023-04-25T01:18:36;12.00;;;5.35;;
64738;SDS011;51175;51.186;0.276;2023-04-25T01:19:09;8.73;;;4.72;;
64738;SDS011;51175;51.186;0.276;2023-04-25T01:19:43;9.55;;;4.95;;
64738;SDS011;51175;51.186;0.276;2023-04-25T01:20:14;11.32;;;5.82;;
64738;SDS011;51175;51.186;0.276;2023-04-25T01:20:46;9.00;;;4.18;;
64738;SDS011;51175;51.186;0.276;2023-04-25T01:21:17;9.13;;;4.43;;
64738;SDS011;51175;51.186;0.276;2023-04-25T01:21:47;9.00;;;4.43;;
64738;SDS011;51175;51.186;0.276;2023-04-25T01:22:18;9.13;;;4.10;;
64738;SDS011;51175;51.186;0.276;2023-04-25T01:22:51;11.70;;;4.68;;
64738;SDS011;51175;51.186;0.276;2023-04-25T01:23:22;10.57;;;5.40;;
64738;SDS011;51175;51.186;0.276;2023-04-25T01:23:53;9.25;;;4.63;;
64738;SDS011;51175;51.186;0.276;2023-04-25T01:24:24;11.07;;;4.95;;
64738;SDS011;51175;51.186;0.276;2023-04-25T01:24:55;8.35;;;4.50;;
64738;SDS011;51175;51.186;0.276;2023-04-25T01:25:26;7.45;;;4.82;;
64738;SDS011;51175;51.186;0.276;2023-04-25T01:25:56;7.82;;;4.38;;
64738;SDS011;51175;51.186;0.276;2023-04-25T01:26:27;12.65;;;5.13;;
64738;SDS011;51175;51.186;0.276;2023-04-25T01:26:58;9.02;;;4.38;;
64738;SDS011;51175;51.186;0.276;2023-04-25T01:27:30;10.90;;;4.10;;
64738;SDS011;51175;51.186;0.276;2023-04-25T01:28:00;6.07;;;4.18;;
64738;SDS011;51175;51.186;0.276;2023-04-25T01:28:31;13.38;;;5.55;;
64738;SDS011;51175;51.186;0.276;2023-04-25T01:29:07;10.93;;;4.72;;
64738;SDS011;51175;51.186;0.276;2023-04-25T01:29:37;10.23;;;4.43;;
64738;SDS011;51175;51.186;0.276;2023-04-25T01:30:08;11.85;;;4.75;;
64738;SDS011;51175;51.186;0.276;2023-04-25T01:30:39;11.68;;;5.85;;
64738;SDS011;51175;51.186;0.276;2023-04-25T01:31:11;8.57;;;4.38;;
64738;SDS011;51175;51.186;0.276;2023-04-25T01:31:42;10.90;;;4.07;;
64738;SDS011;51175;51.186;0.276;2023-04-25T01:32:13;8.77;;;4.57;;
64738;SDS011;51175;51.186;0.276;2023-04-25T01:32:44;9.70;;;4.40;;
64738;SDS011;51175;51.186;0.276;2023-04-25T01:33:14;12.27;;;3.80;;
64738;SDS011;51175;51.186;0.276;2023-04-25T01:33:46;8.35;;;4.38;;
64738;SDS011;51175;51.186;0.276;2023-04-25T01:34:17;11.45;;;4.15;;
64738;SDS011;51175;51.186;0.276;2023-04-25T01:34:47;10.35;;;4.60;;
64738;SDS011;51175;51.186;0.276;2023-04-25T01:35:18;8.00;;;3.88;;
64738;SDS011;51175;51.186;0.276;2023-04-25T01:35:48;8.77;;;4.30;;
64738;SDS011;51175;51.186;0.276;2023-04-25T01:36:20;11.63;;;4.22;;
64738;SDS011;51175;51.186;0.276;2023-04-25T01:36:52;10.63;;;3.58;;
64738;SDS011;51175;51.186;0.276;2023-04-25T01:37:23;8.15;;;3.78;;
64738;SDS011;51175;51.186;0.276;2023-04-25T01:37:53;9.15;;;4.22;;
64738;SDS011;51175;51.186;0.276;2023-04-25T01:38:24;9.90;;;5.00;;
64738;SDS011;51175;51.186;0.276;2023-04-25T01:38:54;11.50;;;5.03;;
64738;SDS011;51175;51.186;0.276;2023-04-25T01:39:25;9.13;;;4.72;;
64738;SDS011;51175;51.186;0.276;2023-04-25T01:39:55;9.20;;;3.85;;
64738;SDS011;51175;51.186;0.276;2023-04-25T01:40:26;11.18;;;5.22;;
64738;SDS011;51175;51.186;0.276;2023-04-25T01:40:57;9.20;;;4.70;;
64738;SDS011;51175;51.186;0.276;2023-04-25T01:41:28;11.43;;;5.18;;
64738;SDS011;51175;51.186;0.276;2023-04-25T01:41:58;9.60;;;4.20;;
64738;SDS011;51175;51.186;0.276;2023-04-25T01:42:29;9.75;;;4.53;;
64738;SDS011;51175;51.186;0.276;2023-04-25T01:43:00;6.72;;;3.95;;
64738;SDS011;51175;51.186;0.276;2023-04-25T01:43:30;7.32;;;3.55;;
64738;SDS011;51175;51.186;0.276;2023-04-25T01:44:01;9.82;;;4.78;;
64738;SDS011;51175;51.186;0.276;2023-04-25T01:44:32;10.90;;;4.30;;
64738;SDS011;51175;51.186;0.276;2023-04-25T01:45:02;14.32;;;5.25;;
64738;SDS011;51175;51.186;0.276;2023-04-25T01:45:33;8.18;;;4.03;;
64738;SDS011;51175;51.186;0.276;2023-04-25T01:46:06;8.73;;;4.60;;
64738;SDS011;51175;51.186;0.276;2023-04-25T01:46:36;9.13;;;3.65;;
64738;SDS011;51175;51.186;0.276;2023-04-25T01:47:07;8.32;;;4.30;;
64738;SDS011;51175;51.186;0.276;2023-04-25T01:47:38;9.10;;;5.28;;
64738;SDS011;51175;51.186;0.276;2023-04-25T01:48:10;8.63;;;4.25;;
64738;SDS011;51175;51.186;0.276;2023-04-25T01:48:42;9.80;;;3.92;;
64738;SDS011;51175;51.186;0.276;2023-04-25T01:49:12;6.95;;;3.45;;
64738;SDS011;51175;51.186;0.276;2023-04-25T01:49:43;8.18;;;3.67;;
64738;SDS011;51175;51.186;0.276;2023-04-25T01:50:13;13.25;;;4.22;;
64738;SDS011;51175;51.186;0.276;2023-04-25T01:50:44;8.18;;;3.95;;
64738;SDS011;51175;51.186;0.276;2023-04-25T01:51:15;6.80;;;3.50;;
64738;SDS011;51175;51.186;0.276;2023-04-25T01:51:45;7.57;;;3.75;;
64738;SDS011;51175;51.186;0.276;2023-04-25T01:52:16;8.25;;;3.95;;
64738;SDS011;51175;51.186;0.276;2023-04-25T01:52:46;11.48;;;5.22;;
64738;SDS011;51175;51.186;0.276;2023-04-25T01:53:17;9.40;;;3.53;;
64738;SDS011;51175;51.186;0.276;2023-04-25T01:53:47;12.40;;;4.97;;
64738;SDS011;51175;51.186;0.276;2023-04-25T01:54:18;8.50;;;3.83;;
64738;SDS011;51175;51.186;0.276;2023-04-25T01:54:49;8.75;;;3.63;;
64738;SDS011;51175;51.186;0.276;2023-04-25T01:55:21;10.13;;;4.70;;
64738;SDS011;51175;51.186;0.276;2023-04-25T01:55:51;7.97;;;4.22;;
64738;SDS011;51175;51.186;0.276;2023-04-25T01:56:21;10.77;;;4.40;;
64738;SDS011;51175;51.186;0.276;2023-04-25T01:56:52;9.32;;;5.55;;
64738;SDS011;51175;51.186;0.276;2023-04-25T01:57:22;7.43;;;3.55;;
64738;SDS011;51175;51.186;0.276;2023-04-25T01:57:53;7.70;;;3.75;;
64738;SDS011;51175;51.186;0.276;2023-04-25T01:58:23;8.10;;;4.03;;
64738;SDS011;51175;51.186;0.276;2023-04-25T01:58:54;9.00;;;4.13;;
64738;SDS011;51175;51.186;0.276;2023-04-25T01:59:24;8.05;;;3.85;;
64738;SDS011;51175;51.186;0.276;2023-04-25T01:59:57;10.00;;;3.60;;
64738;SDS011;51175;51.186;0.276;2023-04-25T02:00:30;9.88;;;3.53;;
64738;SDS011;51175;51.186;0.276;2023-04-25T02:01:00;8.90;;;3.90;;
64738;SDS011;51175;51.186;0.276;2023-04-25T02:01:31;8.50;;;4.25;;
64738;SDS011;51175;51.186;0.276;2023-04-25T02:02:02;7.85;;;3.20;;
64738;SDS011;51175;51.186;0.276;2023-04-25T02:02:33;9.40;;;3.58;;
64738;SDS011;51175;51.186;0.276;2023-04-25T02:03:04;9.05;;;3.90;;
64738;SDS011;51175;51.186;0.276;2023-04-25T02:03:36;6.90;;;4.30;;
64738;SDS011;51175;51.186;0.276;2023-04-25T02:04:06;7.75;;;4.05;;
64738;SDS011;51175;51.186;0.276;2023-04-25T02:04:36;8.98;;;4.22;;
64738;SDS011;51175;51.186;0.276;2023-04-25T02:05:07;6.20;;;3.67;;
64738;SDS011;51175;51.186;0.276;2023-04-25T02:05:37;8.02;;;3.47;;
64738;SDS011;51175;51.186;0.276;2023-04-25T02:06:09;8.55;;;3.88;;
64738;SDS011;51175;51.186;0.276;2023-04-25T02:06:39;10.40;;;3.67;;
64738;SDS011;51175;51.186;0.276;2023-04-25T02:07:10;6.35;;;3.20;;
64738;SDS011;51175;51.186;0.276;2023-04-25T02:07:40;7.97;;;4.32;;
64738;SDS011;51175;51.186;0.276;2023-04-25T02:08:10;10.63;;;3.70;;
64738;SDS011;51175;51.186;0.276;2023-04-25T02:08:41;8.27;;;3.20;;
64738;SDS011;51175;51.186;0.276;2023-04-25T02:09:11;10.63;;;4.03;;
64738;SDS011;51175;51.186;0.276;2023-04-25T02:09:41;9.40;;;4.15;;
64738;SDS011;51175;51.186;0.276;2023-04-25T02:10:12;9.75;;;3.38;;
64738;SDS011;51175;51.186;0.276;2023-04-25T02:10:42;6.65;;;2.95;;
64738;SDS011;51175;51.186;0.276;2023-04-25T02:11:13;7.13;;;3.80;;
64738;SDS011;51175;51.186;0.276;2023-04-25T02:11:43;7.90;;;3.40;;
64738;SDS011;51175;51.186;0.276;2023-04-25T02:12:14;5.75;;;2.70;;
64738;SDS011;51175;51.186;0.276;2023-04-25T02:12:44;7.82;;;3.08;;
64738;SDS011;51175;51.186;0.276;2023-04-25T02:13:15;9.15;;;3.53;;
64738;SDS011;51175;51.186;0.276;2023-04-25T02:13:45;7.18;;;3.67;;
64738;SDS011;51175;51.186;0.276;2023-04-25T02:14:15;6.20;;;3.45;;
64738;SDS011;51175;51.186;0.276;2023-04-25T02:14:46;8.30;;;2.92;;
64738;SDS011;51175;51.186;0.276;2023-04-25T02:15:16;8.82;;;4.32;;
64738;SDS011;51175;51.186;0.276;2023-04-25T02:15:46;6.97;;;3.30;;
64738;SDS011;51175;51.186;0.276;2023-04-25T02:16:17;7.68;;;3.30;;
64738;SDS011;51175;51.186;0.276;2023-04-25T02:16:47;8.10;;;3.40;;
64738;SDS011;51175;51.186;0.276;2023-04-25T02:17:18;5.68;;;3.60;;
64738;SDS011;51175;51.186;0.276;2023-04-25T02:17:48;8.48;;;3.15;;
64738;SDS011;51175;51.186;0.276;2023-04-25T02:18:19;9.10;;;3.80;;
64738;SDS011;51175;51.186;0.276;2023-04-25T02:18:50;8.05;;;3.10;;
64738;SDS011;51175;51.186;0.276;2023-04-25T02:19:22;8.23;;;3.53;;
64738;SDS011;51175;51.186;0.276;2023-04-25T02:19:53;6.28;;;3.63;;
64738;SDS011;51175;51.186;0.276;2023-04-25T02:20:23;8.70;;;3.47;;
64738;SDS011;51175;51.186;0.276;2023-04-25T02:20:54;7.15;;;3.58;;
64738;SDS011;51175;51.186;0.276;2023-04-25T02:21:24;9.63;;;3.45;;
64738;SDS011;51175;51.186;0.276;2023-04-25T02:21:56;9.13;;;3.90;;
64738;SDS011;51175;51.186;0.276;2023-04-25T02:22:27;9.05;;;3.35;;
64738;SDS011;51175;51.186;0.276;2023-04-25T02:23:00;9.20;;;4.82;;
64738;SDS011;51175;51.186;0.276;2023-04-25T02:23:30;9.00;;;3.45;;
64738;SDS011;51175;51.186;0.276;2023-04-25T02:24:00;7.88;;;3.92;;
64738;SDS011;51175;51.186;0.276;2023-04-25T02:24:31;7.25;;;3.20;;
64738;SDS011;51175;51.186;0.276;2023-04-25T02:25:03;6.00;;;3.03;;
64738;SDS011;51175;51.186;0.276;2023-04-25T02:25:34;9.60;;;3.35;;
64738;SDS011;51175;51.186;0.276;2023-04-25T02:26:05;7.97;;;3.00;;
64738;SDS011;51175;51.186;0.276;2023-04-25T02:26:35;5.75;;;3.05;;
64738;SDS011;51175;51.186;0.276;2023-04-25T02:27:06;7.85;;;2.53;;
64738;SDS011;51175;51.186;0.276;2023-04-25T02:27:37;7.53;;;3.08;;
64738;SDS011;51175;51.186;0.276;2023-04-25T02:28:08;10.05;;;4.00;;
64738;SDS011;51175;51.186;0.276;2023-04-25T02:28:38;6.70;;;3.65;;
64738;SDS011;51175;51.186;0.276;2023-04-25T02:29:09;8.35;;;3.78;;
64738;SDS011;51175;51.186;0.276;2023-04-25T02:29:40;8.15;;;3.55;;
64738;SDS011;51175;51.186;0.276;2023-04-25T02:30:10;7.78;;;3.03;;
64738;SDS011;51175;51.186;0.276;2023-04-25T02:30:41;5.85;;;3.58;;
64738;SDS011;51175;51.186;0.276;2023-04-25T02:31:11;5.15;;;2.95;;
64738;SDS011;51175;51.186;0.276;2023-04-25T02:31:42;6.22;;;3.25;;
64738;SDS011;51175;51.186;0.276;2023-04-25T02:32:12;6.95;;;2.70;;
64738;SDS011;51175;51.186;0.276;2023-04-25T02:32:42;9.07;;;3.08;;
64738;SDS011;51175;51.186;0.276;2023-04-25T02:33:13;9.13;;;3.97;;
64738;SDS011;51175;51.186;0.276;2023-04-25T02:33:47;6.70;;;3.28;;
64738;SDS011;51175;51.186;0.276;2023-04-25T02:34:17;5.80;;;3.45;;
64738;SDS011;51175;51.186;0.276;2023-04-25T02:34:48;5.68;;;2.83;;
64738;SDS011;51175;51.186;0.276;2023-04-25T02:35:18;6.68;;;2.78;;
64738;SDS011;51175;51.186;0.276;2023-04-25T02:35:48;6.18;;;3.75;;
64738;SDS011;51175;51.186;0.276;2023-04-25T02:36:19;7.65;;;3.78;;
64738;SDS011;51175;51.186;0.276;2023-04-25T02:36:49;7.55;;;3.60;;
64738;SDS011;51175;51.186;0.276;2023-04-25T02:37:22;5.13;;;2.65;;
64738;SDS011;51175;51.186;0.276;2023-04-25T02:37:53;6.05;;;3.97;;
64738;SDS011;51175;51.186;0.276;2023-04-25T02:38:23;10.25;;;3.60;;
64738;SDS011;51175;51.186;0.276;2023-04-25T02:38:53;8.20;;;3.83;;
64738;SDS011;51175;51.186;0.276;2023-04-25T02:39:24;6.53;;;3.13;;
64738;SDS011;51175;51.186;0.276;2023-04-25T02:39:55;7.25;;;3.05;;
64738;SDS011;51175;51.186;0.276;2023-04-25T02:40:25;8.70;;;3.10;;
64738;SDS011;51175;51.186;0.276;2023-04-25T02:40:55;9.88;;;3.35;;
64738;SDS011;51175;51.186;0.276;2023-04-25T02:41:26;6.18;;;2.60;;
64738;SDS011;51175;51.186;0.276;2023-04-25T02:41:56;7.93;;;2.97;;
64738;SDS011;51175;51.186;0.276;2023-04-25T02:42:27;5.20;;;2.60;;
64738;SDS011;51175;51.186;0.276;2023-04-25T02:42:57;7.70;;;2.97;;
64738;SDS011;51175;51.186;0.276;2023-04-25T02:43:28;7.53;;;2.72;;
64738;SDS011;51175;51.186;0.276;2023-04-25T02:43:58;7.28;;;2.60;;
64738;SDS011;51175;51.186;0.276;2023-04-25T02:44:28;8.15;;;3.67;;
64738;SDS011;51175;51.186;0.276;2023-04-25T02:44:59;5.18;;;2.65;;
64738;SDS011;51175;51.186;0.276;2023-04-25T02:45:29;8.35;;;3.10;;
64738;SDS011;51175;51.186;0.276;2023-04-25T02:45:59;6.32;;;4.38;;
64738;SDS011;51175;51.186;0.276;2023-04-25T02:46:30;9.43;;;4.05;;
64738;SDS011;51175;51.186;0.276;2023-04-25T02:47:00;7.13;;;3.15;;
64738;SDS011;51175;51.186;0.276;2023-04-25T02:47:30;5.72;;;2.67;;
64738;SDS011;51175;51.186;0.276;2023-04-25T02:48:02;5.03;;;3.13;;
64738;SDS011;51175;51.186;0.276;2023-04-25T02:48:32;6.75;;;3.50;;
64738;SDS011;51175;51.186;0.276;2023-04-25T02:49:03;7.40;;;4.18;;
64738;SDS011;51175;51.186;0.276;2023-04-25T02:49:33;7.25;;;2.60;;
64738;SDS011;51175;51.186;0.276;2023-04-25T02:50:03;7.65;;;2.95;;
64738;SDS011;51175;51.186;0.276;2023-04-25T02:50:35;6.00;;;2.55;;
64738;SDS011;51175;51.186;0.276;2023-04-25T02:51:05;7.00;;;3.10;;
64738;SDS011;51175;51.186;0.276;2023-04-25T02:51:36;6.13;;;3.22;;
64738;SDS011;51175;51.186;0.276;2023-04-25T02:52:06;5.82;;;2.90;;
64738;SDS011;51175;51.186;0.276;2023-04-25T02:52:37;9.68;;;2.63;;
64738;SDS011;51175;51.186;0.276;2023-04-25T02:53:07;8.15;;;3.45;;
64738;SDS011;51175;51.186;0.276;2023-04-25T02:53:37;7.85;;;3.17;;
64738;SDS011;51175;51.186;0.276;2023-04-25T02:54:08;7.32;;;3.78;;
64738;SDS011;51175;51.186;0.276;2023-04-25T02:54:39;6.30;;;2.90;;
64738;SDS011;51175;51.186;0.276;2023-04-25T02:55:10;10.68;;;2.70;;
64738;SDS011;51175;51.186;0.276;2023-04-25T02:55:40;8.52;;;3.03;;
64738;SDS011;51175;51.186;0.276;2023-04-25T02:56:11;7.72;;;2.63;;
64738;SDS011;51175;51.186;0.276;2023-04-25T02:56:41;7.38;;;2.78;;
64738;SDS011;51175;51.186;0.276;2023-04-25T02:57:11;7.60;;;2.90;;
64738;SDS011;51175;51.186;0.276;2023-04-25T02:57:42;6.13;;;2.50;;
64738;SDS011;51175;51.186;0.276;2023-04-25T02:58:12;5.03;;;2.60;;
64738;SDS011;51175;51.186;0.276;2023-04-25T02:58:43;6.53;;;3.22;;
64738;SDS011;51175;51.186;0.276;2023-04-25T02:59:13;6.22;;;2.55;;
64738;SDS011;51175;51.186;0.276;2023-04-25T02:59:43;6.85;;;2.40;;
64738;SDS011;51175;51.186;0.276;2023-04-25T03:00:14;6.40;;;2.35;;
64738;SDS011;51175;51.186;0.276;2023-04-25T03:00:44;7.90;;;3.35;;
64738;SDS011;51175;51.186;0.276;2023-04-25T03:01:15;6.13;;;3.28;;
64738;SDS011;51175;51.186;0.276;2023-04-25T03:01:45;7.70;;;3.30;;
64738;SDS011;51175;51.186;0.276;2023-04-25T03:02:15;8.65;;;3.85;;
64738;SDS011;51175;51.186;0.276;2023-04-25T03:02:46;4.32;;;2.53;;
64738;SDS011;51175;51.186;0.276;2023-04-25T03:03:16;6.35;;;3.25;;
64738;SDS011;51175;51.186;0.276;2023-04-25T03:03:47;3.67;;;2.13;;
64738;SDS011;51175;51.186;0.276;2023-04-25T03:04:18;6.25;;;2.78;;
64738;SDS011;51175;51.186;0.276;2023-04-25T03:04:49;7.22;;;3.33;;
64738;SDS011;51175;51.186;0.276;2023-04-25T03:05:19;6.05;;;2.95;;